createdAt,value
2023-01-29T00:00:20.502Z,73.85
2023-01-29T00:01:26.176Z,73.33
2023-01-29T00:02:29.852Z,73.68
2023-01-29T00:03:33.224Z,73.68
2023-01-29T00:04:36.134Z,74.39
2023-01-29T00:05:38.578Z,73.89
2023-01-29T00:06:41.566Z,73.25
2023-01-29T00:07:43.740Z,73.79
2023-01-29T00:08:46.917Z,73.63
2023-01-29T00:09:48.924Z,74.03
2023-01-29T00:10:51.875Z,73.89
2023-01-29T00:11:53.869Z,73.43
2023-01-29T00:12:56.894Z,74.15
2023-01-29T00:13:59.139Z,74.59
2023-01-29T00:15:02.247Z,73.73
2023-01-29T00:16:04.691Z,73.84
2023-01-29T00:17:07.791Z,74.00
2023-01-29T00:18:11.132Z,74.25
2023-01-29T00:19:14.081Z,73.97
2023-01-29T00:20:16.761Z,74.00
2023-01-29T00:21:22.108Z,73.72
2023-01-29T00:22:24.341Z,73.32
2023-01-29T00:23:27.629Z,73.50
2023-01-29T00:24:29.775Z,73.58
2023-01-29T00:25:32.867Z,73.51
2023-01-29T00:26:34.798Z,74.34
2023-01-29T00:27:37.670Z,74.15
2023-01-29T00:28:39.646Z,74.66
2023-01-29T00:29:43.594Z,74.57
2023-01-29T00:30:45.517Z,74.98
2023-01-29T00:31:48.624Z,74.89
2023-01-29T00:32:51.326Z,74.89
2023-01-29T00:33:55.744Z,74.78
2023-01-29T00:34:57.729Z,75.15
2023-01-29T00:36:03.915Z,74.72
2023-01-29T00:37:08.884Z,74.12
2023-01-29T00:38:12.047Z,73.87
2023-01-29T00:39:14.012Z,74.09
2023-01-29T00:40:17.845Z,74.39
2023-01-29T00:41:40.581Z,74.49
2023-01-29T00:43:03.386Z,74.59
2023-01-29T00:44:25.360Z,74.89
2023-01-29T00:45:28.287Z,73.98
2023-01-29T00:46:30.307Z,74.08
2023-01-29T00:47:34.398Z,74.22
2023-01-29T00:48:36.427Z,74.48
2023-01-29T00:49:41.287Z,74.51
2023-01-29T00:50:43.173Z,73.42
2023-01-29T00:52:06.219Z,74.09
2023-01-29T00:53:08.153Z,74.33
2023-01-29T00:54:11.114Z,73.57
2023-01-29T00:55:13.261Z,74.21
2023-01-29T00:56:16.271Z,73.87
2023-01-29T00:57:18.309Z,74.50
2023-01-29T00:58:22.528Z,75.03
2023-01-29T00:59:24.640Z,73.42
2023-01-29T01:00:27.643Z,74.41
2023-01-29T01:01:48.147Z,73.58
2023-01-29T01:03:08.348Z,74.37
2023-01-29T01:04:12.484Z,73.65
2023-01-29T01:05:20.453Z,74.31
2023-01-29T01:06:22.426Z,73.76
2023-01-29T01:07:25.454Z,74.92
2023-01-29T01:08:45.940Z,74.09
2023-01-29T01:10:06.881Z,74.30
2023-01-29T01:11:09.823Z,74.55
2023-01-29T01:12:11.765Z,74.90
2023-01-29T01:13:14.768Z,74.38
2023-01-29T01:14:16.885Z,74.38
2023-01-29T01:15:20.327Z,74.46
2023-01-29T01:16:22.468Z,73.55
2023-01-29T01:17:25.929Z,73.86
2023-01-29T01:18:30.489Z,73.92
2023-01-29T01:19:35.130Z,73.90
2023-01-29T01:20:39.949Z,73.20
2023-01-29T01:21:45.398Z,73.70
2023-01-29T01:22:48.401Z,74.27
2023-01-29T01:23:52.064Z,74.40
2023-01-29T01:24:55.543Z,73.96
2023-01-29T01:25:57.673Z,73.58
2023-01-29T01:27:00.733Z,74.03
2023-01-29T01:28:02.735Z,74.08
2023-01-29T01:29:06.214Z,74.30
2023-01-29T01:30:11.588Z,74.57
2023-01-29T01:31:15.630Z,74.34
2023-01-29T01:32:17.751Z,74.18
2023-01-29T01:33:21.075Z,73.20
2023-01-29T01:34:23.009Z,73.43
2023-01-29T01:35:25.947Z,74.55
2023-01-29T01:36:29.318Z,74.39
2023-01-29T01:37:32.285Z,74.22
2023-01-29T01:38:34.263Z,73.66
2023-01-29T01:39:37.293Z,73.44
2023-01-29T01:40:45.350Z,73.44
2023-01-29T01:41:48.424Z,73.12
2023-01-29T01:42:52.955Z,73.57
2023-01-29T01:43:57.527Z,73.41
2023-01-29T01:45:04.572Z,73.39
2023-01-29T01:46:06.575Z,74.36
2023-01-29T01:47:09.752Z,73.82
2023-01-29T01:48:17.150Z,73.46
2023-01-29T01:49:21.679Z,73.98
2023-01-29T01:50:29.600Z,73.51
2023-01-29T01:51:36.724Z,74.28
2023-01-29T01:52:44.803Z,73.79
2023-01-29T01:53:55.904Z,74.03
2023-01-29T01:54:58.977Z,74.17
2023-01-29T01:56:04.727Z,74.19
2023-01-29T01:57:15.804Z,73.08
2023-01-29T01:58:25.081Z,73.36
2023-01-29T01:59:27.121Z,74.49
2023-01-29T02:00:30.128Z,73.96
2023-01-29T02:01:32.429Z,73.19
2023-01-29T02:02:52.967Z,73.22
2023-01-29T02:04:18.672Z,73.68
2023-01-29T02:05:39.527Z,73.82
2023-01-29T02:07:02.490Z,73.84
2023-01-29T02:08:23.382Z,74.44
2023-01-29T02:09:33.910Z,74.33
2023-01-29T02:10:40.153Z,74.18
2023-01-29T02:11:43.132Z,73.79
2023-01-29T02:12:46.320Z,73.26
2023-01-29T02:13:53.490Z,73.34
2023-01-29T02:15:00.793Z,73.61
2023-01-29T02:16:03.895Z,74.49
2023-01-29T02:17:06.183Z,74.07
2023-01-29T02:18:10.122Z,73.70
2023-01-29T02:19:18.831Z,74.29
2023-01-29T02:20:25.719Z,73.53
2023-01-29T02:22:08.514Z,73.29
2023-01-29T02:23:50.499Z,74.03
2023-01-29T02:25:09.740Z,74.28
2023-01-29T02:26:53.569Z,74.04
2023-01-29T02:28:31.938Z,74.26
2023-01-29T02:29:48.883Z,73.66
2023-01-29T02:31:00.551Z,73.51
2023-01-29T02:32:14.434Z,73.53
2023-01-29T02:33:26.254Z,73.00
2023-01-29T02:34:56.782Z,73.88
2023-01-29T02:36:11.794Z,73.63
2023-01-29T02:37:15.245Z,73.20
2023-01-29T02:38:25.436Z,73.32
2023-01-29T02:39:34.129Z,74.34
2023-01-29T02:40:42.045Z,74.45
2023-01-29T02:41:51.060Z,74.44
2023-01-29T02:43:03.065Z,74.08
2023-01-29T02:44:17.951Z,73.53
2023-01-29T02:45:28.678Z,73.99
2023-01-29T02:46:36.397Z,73.29
2023-01-29T02:47:45.552Z,73.31
2023-01-29T02:48:56.784Z,73.58
2023-01-29T02:50:06.704Z,73.77
2023-01-29T02:51:18.322Z,74.07
2023-01-29T02:52:25.506Z,73.25
2023-01-29T02:53:35.244Z,74.06
2023-01-29T02:54:45.225Z,73.36
2023-01-29T02:55:52.723Z,73.11
2023-01-29T02:56:58.732Z,73.74
2023-01-29T02:58:07.613Z,73.40
2023-01-29T02:59:14.652Z,73.23
2023-01-29T03:00:21.148Z,73.89
2023-01-29T03:01:30.806Z,74.12
2023-01-29T03:02:39.459Z,73.79
2023-01-29T03:03:45.754Z,73.41
2023-01-29T03:04:53.711Z,74.25
2023-01-29T03:06:02.396Z,74.09
2023-01-29T03:07:10.576Z,73.68
2023-01-29T03:08:18.588Z,73.87
2023-01-29T03:09:26.483Z,73.75
2023-01-29T03:10:35.237Z,73.67
2023-01-29T03:11:43.058Z,73.55
2023-01-29T03:12:52.013Z,73.90
2023-01-29T03:14:01.094Z,73.67
2023-01-29T03:15:12.147Z,73.71
2023-01-29T03:16:22.982Z,73.39
2023-01-29T03:17:33.639Z,73.44
2023-01-29T03:18:45.861Z,73.68
2023-01-29T03:19:49.264Z,73.50
2023-01-29T03:21:02.240Z,73.26
2023-01-29T03:22:08.453Z,73.66
2023-01-29T03:23:16.337Z,73.35
2023-01-29T03:24:42.100Z,73.72
2023-01-29T03:26:03.646Z,73.16
2023-01-29T03:27:29.329Z,73.81
2023-01-29T03:28:52.223Z,74.15
2023-01-29T03:30:15.128Z,73.76
2023-01-29T03:31:49.446Z,73.88
2023-01-29T03:32:55.917Z,73.76
2023-01-29T03:34:10.102Z,73.35
2023-01-29T03:35:20.981Z,74.00
2023-01-29T03:36:37.813Z,73.25
2023-01-29T03:37:45.592Z,73.54
2023-01-29T03:38:47.511Z,73.78
2023-01-29T03:39:50.688Z,73.74
2023-01-29T03:40:56.635Z,73.64
2023-01-29T03:42:06.059Z,73.51
2023-01-29T03:43:13.352Z,74.05
2023-01-29T03:44:26.523Z,73.95
2023-01-29T03:45:37.049Z,73.33
2023-01-29T03:46:45.775Z,73.89
2023-01-29T03:47:51.601Z,73.71
2023-01-29T03:49:08.324Z,74.01
2023-01-29T03:50:22.081Z,73.88
2023-01-29T03:51:31.399Z,73.87
2023-01-29T03:52:43.483Z,73.17
2023-01-29T03:53:52.638Z,73.29
2023-01-29T03:55:00.807Z,73.13
2023-01-29T03:56:12.694Z,72.78
2023-01-29T03:57:23.282Z,74.20
2023-01-29T03:58:35.865Z,73.75
2023-01-29T03:59:43.623Z,73.02
2023-01-29T04:01:14.901Z,73.00
2023-01-29T04:02:27.930Z,73.37
2023-01-29T04:03:35.572Z,72.96
2023-01-29T04:04:47.267Z,73.75
2023-01-29T04:06:05.463Z,73.73
2023-01-29T04:07:13.700Z,74.02
2023-01-29T04:08:23.348Z,73.57
2023-01-29T04:09:32.535Z,73.24
2023-01-29T04:10:39.132Z,73.05
2023-01-29T04:11:46.454Z,74.04
2023-01-29T04:12:55.466Z,73.83
2023-01-29T04:13:59.277Z,72.94
2023-01-29T04:15:02.182Z,72.88
2023-01-29T04:16:09.980Z,73.76
2023-01-29T04:17:37.341Z,72.97
2023-01-29T04:18:47.845Z,73.78
2023-01-29T04:19:54.667Z,73.92
2023-01-29T04:20:56.820Z,73.01
2023-01-29T04:22:05.057Z,73.21
2023-01-29T04:23:18.720Z,73.79
2023-01-29T04:24:24.877Z,73.94
2023-01-29T04:25:36.059Z,73.24
2023-01-29T04:26:56.450Z,73.87
2023-01-29T04:28:06.743Z,73.82
2023-01-29T04:29:21.616Z,73.10
2023-01-29T04:30:36.319Z,73.94
2023-01-29T04:31:47.681Z,73.92
2023-01-29T04:33:04.075Z,73.94
2023-01-29T04:34:19.226Z,73.13
2023-01-29T04:35:32.493Z,73.78
2023-01-29T04:36:47.505Z,73.96
2023-01-29T04:38:01.658Z,73.36
2023-01-29T04:39:12.126Z,73.94
2023-01-29T04:40:21.206Z,73.37
2023-01-29T04:41:31.133Z,73.03
2023-01-29T04:42:40.858Z,74.11
2023-01-29T04:43:55.729Z,73.16
2023-01-29T04:45:03.629Z,73.87
2023-01-29T04:46:15.121Z,73.38
2023-01-29T04:47:26.288Z,72.70
2023-01-29T04:48:33.815Z,72.94
2023-01-29T04:49:44.511Z,73.83
2023-01-29T04:50:56.735Z,74.02
2023-01-29T04:52:05.572Z,73.69
2023-01-29T04:53:13.142Z,72.78
2023-01-29T04:54:21.694Z,73.50
2023-01-29T04:55:34.037Z,72.91
2023-01-29T04:56:43.029Z,73.92
2023-01-29T04:57:53.697Z,73.37
2023-01-29T04:59:02.559Z,73.57
2023-01-29T05:00:12.064Z,73.19
2023-01-29T05:01:19.393Z,73.87
2023-01-29T05:02:25.766Z,73.83
2023-01-29T05:03:29.507Z,73.61
2023-01-29T05:04:35.186Z,73.09
2023-01-29T05:05:39.683Z,73.21
2023-01-29T05:06:47.341Z,73.44
2023-01-29T05:07:49.791Z,72.96
2023-01-29T05:08:53.487Z,73.09
2023-01-29T05:09:56.684Z,73.20
2023-01-29T05:11:00.957Z,72.79
2023-01-29T05:12:06.522Z,72.81
2023-01-29T05:13:15.359Z,73.83
2023-01-29T05:14:20.041Z,73.53
2023-01-29T05:15:27.586Z,73.47
2023-01-29T05:16:41.836Z,73.73
2023-01-29T05:17:44.921Z,73.67
2023-01-29T05:18:47.534Z,72.94
2023-01-29T05:19:50.497Z,73.64
2023-01-29T05:20:56.430Z,73.96
2023-01-29T05:22:01.445Z,73.83
2023-01-29T05:23:03.485Z,72.81
2023-01-29T05:24:15.406Z,73.45
2023-01-29T05:25:23.947Z,72.56
2023-01-29T05:26:45.284Z,73.07
2023-01-29T05:28:05.168Z,73.18
2023-01-29T05:29:07.283Z,73.41
2023-01-29T05:30:11.504Z,73.94
2023-01-29T05:31:14.551Z,73.05
2023-01-29T05:32:16.567Z,72.76
2023-01-29T05:33:21.253Z,74.02
2023-01-29T05:34:23.851Z,73.09
2023-01-29T05:35:28.440Z,73.06
2023-01-29T05:36:30.652Z,73.61
2023-01-29T05:37:35.043Z,73.45
2023-01-29T05:38:36.974Z,72.90
2023-01-29T05:39:39.976Z,72.58
2023-01-29T05:40:42.726Z,73.03
2023-01-29T05:41:45.688Z,73.49
2023-01-29T05:42:47.710Z,73.64
2023-01-29T05:43:50.645Z,72.85
2023-01-29T05:44:52.645Z,73.36
2023-01-29T05:45:56.849Z,72.80
2023-01-29T05:46:58.780Z,72.92
2023-01-29T05:48:01.856Z,73.71
2023-01-29T05:49:04.226Z,73.43
2023-01-29T05:50:08.292Z,73.70
2023-01-29T05:51:10.221Z,72.85
2023-01-29T05:52:13.163Z,72.85
2023-01-29T05:53:17.514Z,73.73
2023-01-29T05:54:19.591Z,72.80
2023-01-29T05:55:22.567Z,73.70
2023-01-29T05:56:25.366Z,72.98
2023-01-29T05:57:28.338Z,72.96
2023-01-29T05:58:30.671Z,73.04
2023-01-29T05:59:33.547Z,73.39
2023-01-29T06:00:35.461Z,73.54
2023-01-29T06:01:38.668Z,72.81
2023-01-29T06:02:41.586Z,73.30
2023-01-29T06:03:44.056Z,73.64
2023-01-29T06:04:46.929Z,73.63
2023-01-29T06:05:48.843Z,72.50
2023-01-29T06:06:51.845Z,72.68
2023-01-29T06:07:53.757Z,73.03
2023-01-29T06:08:58.274Z,72.61
2023-01-29T06:10:00.306Z,72.55
2023-01-29T06:11:03.295Z,72.27
2023-01-29T06:12:07.884Z,73.31
2023-01-29T06:13:10.833Z,73.56
2023-01-29T06:14:12.855Z,72.77
2023-01-29T06:15:16.391Z,73.23
2023-01-29T06:16:18.408Z,72.84
2023-01-29T06:17:21.383Z,73.04
2023-01-29T06:18:23.582Z,72.69
2023-01-29T06:19:26.518Z,72.78
2023-01-29T06:20:28.516Z,72.83
2023-01-29T06:21:31.372Z,72.81
2023-01-29T06:22:33.701Z,73.64
2023-01-29T06:23:36.709Z,73.11
2023-01-29T06:24:40.080Z,73.25
2023-01-29T06:25:43.131Z,73.00
2023-01-29T06:26:45.176Z,73.65
2023-01-29T06:27:51.648Z,73.11
2023-01-29T06:28:53.675Z,73.39
2023-01-29T06:29:56.789Z,73.09
2023-01-29T06:31:08.337Z,73.04
2023-01-29T06:32:19.480Z,73.68
2023-01-29T06:33:21.502Z,73.23
2023-01-29T06:34:24.422Z,73.58
2023-01-29T06:35:26.407Z,72.74
2023-01-29T06:36:29.306Z,72.82
2023-01-29T06:37:31.239Z,73.71
2023-01-29T06:38:34.786Z,72.69
2023-01-29T06:39:36.703Z,72.74
2023-01-29T06:40:41.133Z,73.34
2023-01-29T06:41:45.344Z,72.56
2023-01-29T06:42:47.298Z,72.74
2023-01-29T06:43:50.161Z,73.00
2023-01-29T06:44:52.138Z,72.87
2023-01-29T06:45:56.470Z,73.07
2023-01-29T06:46:59.467Z,73.51
2023-01-29T06:48:01.785Z,73.39
2023-01-29T06:49:04.743Z,72.40
2023-01-29T06:50:07.079Z,72.65
2023-01-29T06:51:11.232Z,73.54
2023-01-29T06:52:13.161Z,72.55
2023-01-29T06:53:16.180Z,72.74
2023-01-29T06:54:19.110Z,73.22
2023-01-29T06:55:21.053Z,73.18
2023-01-29T06:56:25.910Z,72.76
2023-01-29T06:57:30.029Z,73.19
2023-01-29T06:58:32.030Z,73.10
2023-01-29T06:59:35.454Z,72.81
2023-01-29T07:00:38.234Z,72.98
2023-01-29T07:01:42.430Z,72.33
2023-01-29T07:02:44.462Z,72.67
2023-01-29T07:03:50.553Z,72.81
2023-01-29T07:04:52.496Z,72.80
2023-01-29T07:05:55.389Z,72.46
2023-01-29T07:06:59.029Z,72.32
2023-01-29T07:08:01.954Z,71.68
2023-01-29T07:09:04.735Z,71.71
2023-01-29T07:10:08.627Z,72.11
2023-01-29T07:11:10.536Z,72.40
2023-01-29T07:12:14.831Z,72.63
2023-01-29T07:13:16.899Z,71.98
2023-01-29T07:14:19.744Z,73.03
2023-01-29T07:15:21.806Z,72.16
2023-01-29T07:16:25.107Z,72.56
2023-01-29T07:17:27.180Z,72.08
2023-01-29T07:18:30.929Z,72.66
2023-01-29T07:19:33.324Z,73.27
2023-01-29T07:20:36.578Z,72.58
2023-01-29T07:21:38.468Z,72.07
2023-01-29T07:22:41.407Z,71.75
2023-01-29T07:23:44.351Z,71.93
2023-01-29T07:24:46.304Z,72.45
2023-01-29T07:25:50.044Z,72.78
2023-01-29T07:26:51.950Z,72.83
2023-01-29T07:27:56.214Z,72.59
2023-01-29T07:28:58.270Z,71.95
2023-01-29T07:30:01.149Z,72.54
2023-01-29T07:31:03.105Z,72.81
2023-01-29T07:32:06.502Z,72.56
2023-01-29T07:33:10.275Z,73.00
2023-01-29T07:34:13.198Z,72.56
2023-01-29T07:35:15.156Z,72.03
2023-01-29T07:36:18.042Z,72.15
2023-01-29T07:37:20.063Z,73.28
2023-01-29T07:38:23.324Z,72.15
2023-01-29T07:39:25.420Z,72.73
2023-01-29T07:40:28.351Z,72.29
2023-01-29T07:41:30.284Z,70.05
2023-01-29T07:42:35.903Z,72.09
2023-01-29T07:43:40.239Z,71.80
2023-01-29T07:44:42.113Z,72.36
2023-01-29T07:45:45.018Z,72.53
2023-01-29T07:46:46.928Z,72.07
2023-01-29T07:47:53.751Z,72.52
2023-01-29T07:48:55.803Z,72.16
2023-01-29T07:49:58.694Z,72.59
2023-01-29T07:51:00.725Z,72.51
2023-01-29T07:52:03.659Z,71.81
2023-01-29T07:53:05.802Z,72.86
2023-01-29T07:54:08.988Z,72.78
2023-01-29T07:55:10.881Z,72.83
2023-01-29T07:56:13.938Z,72.32
2023-01-29T07:57:15.943Z,71.75
2023-01-29T07:58:18.853Z,73.04
2023-01-29T07:59:22.231Z,71.94
2023-01-29T08:00:25.310Z,72.42
2023-01-29T08:01:28.378Z,72.28
2023-01-29T08:02:30.309Z,71.91
2023-01-29T08:03:33.220Z,72.39
2023-01-29T08:04:35.188Z,72.41
2023-01-29T08:05:38.265Z,72.06
2023-01-29T08:06:40.240Z,72.56
2023-01-29T08:07:43.853Z,72.09
2023-01-29T08:08:48.961Z,72.85
2023-01-29T08:09:50.931Z,72.71
2023-01-29T08:10:53.857Z,72.68
2023-01-29T08:11:55.854Z,71.64
2023-01-29T08:13:00.319Z,72.28
2023-01-29T08:14:02.483Z,71.60
2023-01-29T08:15:07.514Z,71.33
2023-01-29T08:16:09.574Z,72.78
2023-01-29T08:17:13.262Z,72.97
2023-01-29T08:18:15.561Z,72.17
2023-01-29T08:19:18.525Z,71.76
2023-01-29T08:20:21.869Z,71.27
2023-01-29T08:21:24.839Z,71.58
2023-01-29T08:22:26.811Z,72.59
2023-01-29T08:23:29.743Z,71.54
2023-01-29T08:24:41.813Z,71.18
2023-01-29T08:25:54.856Z,71.56
2023-01-29T08:26:57.801Z,71.38
2023-01-29T08:28:00.676Z,71.77
2023-01-29T08:29:03.640Z,71.38
2023-01-29T08:30:09.658Z,71.56
2023-01-29T08:31:16.057Z,72.30
2023-01-29T08:32:18.101Z,71.99
2023-01-29T08:33:29.805Z,72.46
2023-01-29T08:34:40.054Z,71.99
2023-01-29T08:35:42.468Z,72.42
2023-01-29T08:36:45.338Z,71.69
2023-01-29T08:37:53.059Z,71.58
2023-01-29T08:38:56.063Z,71.65
2023-01-29T08:39:58.006Z,71.88
2023-01-29T08:41:01.009Z,71.96
2023-01-29T08:42:04.234Z,72.06
2023-01-29T08:43:09.320Z,72.27
2023-01-29T08:44:12.764Z,71.90
2023-01-29T08:45:16.626Z,71.64
2023-01-29T08:46:19.605Z,71.53
2023-01-29T08:47:21.681Z,72.33
2023-01-29T08:48:25.212Z,71.80
2023-01-29T08:49:27.199Z,71.79
2023-01-29T08:50:30.836Z,72.24
2023-01-29T08:51:32.872Z,71.36
2023-01-29T08:52:35.744Z,71.79
2023-01-29T08:53:38.643Z,71.04
2023-01-29T08:54:40.549Z,71.26
2023-01-29T08:55:43.440Z,71.58
2023-01-29T08:56:46.366Z,71.10
2023-01-29T08:57:48.325Z,71.52
2023-01-29T08:58:51.388Z,72.09
2023-01-29T08:59:53.349Z,72.35
2023-01-29T09:00:57.703Z,72.16
2023-01-29T09:02:00.587Z,71.67
2023-01-29T09:03:03.887Z,71.42
2023-01-29T09:04:07.095Z,72.26
2023-01-29T09:05:10.042Z,72.14
2023-01-29T09:06:14.998Z,72.38
2023-01-29T09:07:17.950Z,72.60
2023-01-29T09:08:19.953Z,71.51
2023-01-29T09:09:22.886Z,71.55
2023-01-29T09:10:24.995Z,71.73
2023-01-29T09:11:28.148Z,71.46
2023-01-29T09:12:30.073Z,71.66
2023-01-29T09:13:33.307Z,72.13
2023-01-29T09:14:36.224Z,71.23
2023-01-29T09:15:38.164Z,72.31
2023-01-29T09:16:43.179Z,71.24
2023-01-29T09:17:45.254Z,71.68
2023-01-29T09:18:48.208Z,72.11
2023-01-29T09:19:52.217Z,71.31
2023-01-29T09:20:55.479Z,71.83
2023-01-29T09:21:58.373Z,72.20
2023-01-29T09:23:05.053Z,72.02
2023-01-29T09:24:08.232Z,71.43
2023-01-29T09:25:10.861Z,71.34
2023-01-29T09:26:13.856Z,71.53
2023-01-29T09:27:15.847Z,72.12
2023-01-29T09:28:18.827Z,71.66
2023-01-29T09:29:21.749Z,71.84
2023-01-29T09:30:23.652Z,71.46
2023-01-29T09:31:26.705Z,72.17
2023-01-29T09:33:54.357Z,72.42
2023-01-29T09:34:56.289Z,71.98
2023-01-29T09:35:59.387Z,72.38
2023-01-29T09:37:01.590Z,72.20
2023-01-29T09:38:04.751Z,72.07
2023-01-29T09:39:06.696Z,72.06
2023-01-29T09:40:24.031Z,71.45
2023-01-29T09:41:41.297Z,71.83
2023-01-29T09:42:48.642Z,71.59
2023-01-29T09:43:56.847Z,71.98
2023-01-29T09:45:04.982Z,71.75
2023-01-29T09:46:16.882Z,72.01
2023-01-29T09:47:21.284Z,71.88
2023-01-29T09:48:31.819Z,71.54
2023-01-29T09:49:37.846Z,71.21
2023-01-29T09:50:45.647Z,71.72
2023-01-29T09:51:54.128Z,71.69
2023-01-29T09:53:00.528Z,71.58
2023-01-29T09:54:12.713Z,71.89
2023-01-29T09:55:21.941Z,71.48
2023-01-29T09:56:28.812Z,71.86
2023-01-29T09:57:39.196Z,72.24
2023-01-29T09:58:43.036Z,71.76
2023-01-29T09:59:46.053Z,72.30
2023-01-29T10:00:56.234Z,71.49
2023-01-29T10:02:11.164Z,72.10
2023-01-29T10:03:35.873Z,72.20
2023-01-29T10:05:09.813Z,71.43
2023-01-29T10:06:26.386Z,70.95
2023-01-29T10:07:47.331Z,71.69
2023-01-29T10:09:16.107Z,71.79
2023-01-29T10:10:39.321Z,70.88
2023-01-29T10:11:51.328Z,71.89
2023-01-29T10:13:16.333Z,71.84
2023-01-29T10:14:23.449Z,71.78
2023-01-29T10:15:39.918Z,72.28
2023-01-29T10:17:02.273Z,71.54
2023-01-29T10:18:27.478Z,72.37
2023-01-29T10:19:46.691Z,72.00
2023-01-29T10:20:59.816Z,72.01
2023-01-29T10:22:41.930Z,71.42
2023-01-29T10:23:51.388Z,71.65
2023-01-29T10:24:57.609Z,71.20
2023-01-29T10:26:01.199Z,71.13
2023-01-29T10:27:05.949Z,70.88
2023-01-29T10:28:18.171Z,71.09
2023-01-29T10:29:22.744Z,70.97
2023-01-29T10:30:32.820Z,71.18
2023-01-29T10:31:40.534Z,71.24
2023-01-29T10:32:42.574Z,71.68
2023-01-29T10:34:01.510Z,72.15
2023-01-29T10:35:18.875Z,71.66
2023-01-29T10:36:26.679Z,70.70
2023-01-29T10:37:38.560Z,71.93
2023-01-29T10:38:46.095Z,71.46
2023-01-29T10:39:48.108Z,71.23
2023-01-29T10:40:58.121Z,71.65
2023-01-29T10:42:20.875Z,72.29
2023-01-29T10:43:32.666Z,72.20
2023-01-29T10:44:48.688Z,72.22
2023-01-29T10:46:01.183Z,71.69
2023-01-29T10:47:23.421Z,71.51
2023-01-29T10:48:42.183Z,71.65
2023-01-29T10:50:13.709Z,71.18
2023-01-29T10:51:28.798Z,71.43
2023-01-29T10:52:44.809Z,71.20
2023-01-29T10:53:59.480Z,71.22
2023-01-29T10:55:15.960Z,71.13
2023-01-29T10:56:34.799Z,70.98
2023-01-29T10:57:53.274Z,71.36
2023-01-29T10:59:00.514Z,71.67
2023-01-29T11:00:12.906Z,71.53
2023-01-29T11:01:16.484Z,71.18
2023-01-29T11:02:21.311Z,70.87
2023-01-29T11:03:28.240Z,70.87
2023-01-29T11:04:32.614Z,70.83
2023-01-29T11:05:44.856Z,71.83
2023-01-29T11:06:47.909Z,71.86
2023-01-29T11:08:02.524Z,71.91
2023-01-29T11:09:10.982Z,71.18
2023-01-29T11:10:20.420Z,71.54
2023-01-29T11:11:32.856Z,70.69
2023-01-29T11:12:38.844Z,71.77
2023-01-29T11:13:45.333Z,71.66
2023-01-29T11:14:52.942Z,71.08
2023-01-29T11:15:56.022Z,71.79
2023-01-29T11:16:58.025Z,71.62
2023-01-29T11:18:06.307Z,71.26
2023-01-29T11:19:09.366Z,71.12
2023-01-29T11:20:27.706Z,71.46
2023-01-29T11:21:31.987Z,71.64
2023-01-29T11:22:34.513Z,72.13
2023-01-29T11:23:37.506Z,71.54
2023-01-29T11:24:39.420Z,70.90
2023-01-29T11:25:53.956Z,71.41
2023-01-29T11:26:59.963Z,71.68
2023-01-29T11:28:05.230Z,71.46
2023-01-29T11:29:32.090Z,71.11
2023-01-29T11:30:38.742Z,69.73
2023-01-29T11:31:41.703Z,69.55
2023-01-29T11:32:44.801Z,70.27
2023-01-29T11:33:47.265Z,71.69
2023-01-29T11:35:01.287Z,71.68
2023-01-29T11:36:22.363Z,71.26
2023-01-29T11:37:34.594Z,71.37
2023-01-29T11:38:37.583Z,71.46
2023-01-29T11:39:43.989Z,69.80
2023-01-29T11:40:47.671Z,70.53
2023-01-29T11:41:55.686Z,70.92
2023-01-29T11:43:13.464Z,69.52
2023-01-29T11:44:19.038Z,69.28
2023-01-29T11:45:27.547Z,69.55
2023-01-29T11:46:30.656Z,70.82
2023-01-29T11:47:33.719Z,71.07
2023-01-29T11:48:43.669Z,70.87
2023-01-29T11:49:49.429Z,71.84
2023-01-29T11:50:53.200Z,71.57
2023-01-29T11:51:58.271Z,71.15
2023-01-29T11:53:03.399Z,70.91
2023-01-29T11:54:07.029Z,72.08
2023-01-29T11:55:18.756Z,71.02
2023-01-29T11:56:24.804Z,71.54
2023-01-29T11:57:30.892Z,72.14
2023-01-29T11:58:36.059Z,70.96
2023-01-29T11:59:44.232Z,70.87
2023-01-29T12:00:51.314Z,71.26
2023-01-29T12:01:55.148Z,70.63
2023-01-29T12:03:05.829Z,70.13
2023-01-29T12:04:20.328Z,70.08
2023-01-29T12:05:25.878Z,70.55
2023-01-29T12:06:33.854Z,70.23
2023-01-29T12:07:42.869Z,71.02
2023-01-29T12:08:55.261Z,70.08
2023-01-29T12:10:00.123Z,70.25
2023-01-29T12:11:10.537Z,70.78
2023-01-29T12:12:27.793Z,70.96
2023-01-29T12:13:30.822Z,69.74
2023-01-29T12:14:34.360Z,70.58
2023-01-29T12:15:37.613Z,70.80
2023-01-29T12:16:47.702Z,70.92
2023-01-29T12:18:03.882Z,70.06
2023-01-29T12:19:12.924Z,69.81
2023-01-29T12:20:20.931Z,70.42
2023-01-29T12:21:32.206Z,69.64
2023-01-29T12:22:44.001Z,70.80
2023-01-29T12:23:56.100Z,70.40
2023-01-29T12:25:03.890Z,70.30
2023-01-29T12:26:12.883Z,70.22
2023-01-29T12:27:22.237Z,70.56
2023-01-29T12:28:35.800Z,70.02
2023-01-29T12:29:45.391Z,70.50
2023-01-29T12:30:55.605Z,70.71
2023-01-29T12:32:06.680Z,70.29
2023-01-29T12:33:23.595Z,70.77
2023-01-29T12:34:32.519Z,70.52
2023-01-29T12:35:42.336Z,70.81
2023-01-29T12:36:53.164Z,70.46
2023-01-29T12:38:02.334Z,71.32
2023-01-29T12:39:07.011Z,70.32
2023-01-29T12:40:15.670Z,71.43
2023-01-29T12:41:30.072Z,71.10
2023-01-29T12:42:33.259Z,70.50
2023-01-29T12:43:42.388Z,71.58
2023-01-29T12:44:49.642Z,71.61
2023-01-29T12:45:56.635Z,71.17
2023-01-29T12:47:03.959Z,70.90
2023-01-29T12:48:08.788Z,70.55
2023-01-29T12:49:17.667Z,70.80
2023-01-29T12:50:23.662Z,70.19
2023-01-29T12:51:31.352Z,70.77
2023-01-29T12:52:41.038Z,70.75
2023-01-29T12:53:48.181Z,69.94
2023-01-29T12:54:57.387Z,70.75
2023-01-29T12:56:04.033Z,71.21
2023-01-29T12:57:14.313Z,71.29
2023-01-29T12:58:21.069Z,71.20
2023-01-29T12:59:30.248Z,71.86
2023-01-29T13:00:35.503Z,71.04
2023-01-29T13:01:43.283Z,70.48
2023-01-29T13:02:50.892Z,71.07
2023-01-29T13:03:58.859Z,71.35
2023-01-29T13:05:08.460Z,71.03
2023-01-29T13:06:14.768Z,71.22
2023-01-29T13:07:23.702Z,70.90
2023-01-29T13:08:31.313Z,70.50
2023-01-29T13:09:34.589Z,71.55
2023-01-29T13:10:43.690Z,71.02
2023-01-29T13:11:53.390Z,70.37
2023-01-29T13:13:00.797Z,70.89
2023-01-29T13:14:13.222Z,70.99
2023-01-29T13:15:24.366Z,70.36
2023-01-29T13:16:31.479Z,70.57
2023-01-29T13:17:38.013Z,70.45
2023-01-29T13:18:47.668Z,70.76
2023-01-29T13:19:51.483Z,70.96
2023-01-29T13:20:55.410Z,71.12
2023-01-29T13:22:02.134Z,70.43
2023-01-29T13:23:17.015Z,71.54
2023-01-29T13:24:22.543Z,70.09
2023-01-29T13:25:24.554Z,69.85
2023-01-29T13:26:29.372Z,71.41
2023-01-29T13:27:33.502Z,71.05
2023-01-29T13:28:37.655Z,70.88
2023-01-29T13:29:39.580Z,70.70
2023-01-29T13:30:42.641Z,70.89
2023-01-29T13:31:48.595Z,70.65
2023-01-29T13:32:53.265Z,71.30
2023-01-29T13:34:11.132Z,70.95
2023-01-29T13:35:17.286Z,70.99
2023-01-29T13:36:26.136Z,70.99
2023-01-29T13:37:33.377Z,71.15
2023-01-29T13:38:36.373Z,70.69
2023-01-29T13:39:47.708Z,70.47
2023-01-29T13:40:51.218Z,71.24
2023-01-29T13:41:57.324Z,70.43
2023-01-29T13:43:00.691Z,70.82
2023-01-29T13:44:07.427Z,71.51
2023-01-29T13:45:21.162Z,71.58
2023-01-29T13:46:24.238Z,71.15
2023-01-29T13:47:30.177Z,70.28
2023-01-29T13:48:35.701Z,70.20
2023-01-29T13:49:40.750Z,71.12
2023-01-29T13:50:44.539Z,70.40
2023-01-29T13:51:46.492Z,71.01
2023-01-29T13:52:55.491Z,70.51
2023-01-29T13:54:03.732Z,70.44
2023-01-29T13:55:10.588Z,70.45
2023-01-29T13:56:49.931Z,70.54
2023-01-29T13:57:57.727Z,70.79
2023-01-29T13:59:01.360Z,70.44
2023-01-29T14:00:06.048Z,70.92
2023-01-29T14:01:09.110Z,71.07
2023-01-29T14:02:22.897Z,70.92
2023-01-29T14:04:09.624Z,70.69
2023-01-29T14:05:39.100Z,70.73
2023-01-29T14:06:49.137Z,70.28
2023-01-29T14:07:52.249Z,70.82
2023-01-29T14:08:54.193Z,70.98
2023-01-29T14:10:16.623Z,70.26
2023-01-29T14:11:36.119Z,70.39
2023-01-29T14:12:50.833Z,70.10
2023-01-29T14:13:55.121Z,70.12
2023-01-29T14:15:05.203Z,70.65
2023-01-29T14:16:36.719Z,70.62
2023-01-29T14:17:40.199Z,70.70
2023-01-29T14:18:48.401Z,70.50
2023-01-29T14:19:52.435Z,70.83
2023-01-29T14:21:01.317Z,70.62
2023-01-29T14:22:05.907Z,71.88
2023-01-29T14:23:20.414Z,71.49
2023-01-29T14:24:29.695Z,71.22
2023-01-29T14:25:34.648Z,70.96
2023-01-29T14:26:45.398Z,70.49
2023-01-29T14:27:48.163Z,70.56
2023-01-29T14:29:01.665Z,71.33